createdAt,value
2023-01-17T00:01:44.067Z,1.40
2023-01-17T00:04:30.222Z,0.90
2023-01-17T00:07:16.211Z,1.10
2023-01-17T00:09:56.312Z,1.17
2023-01-17T00:12:25.162Z,1.10
2023-01-17T00:14:54.317Z,1.10
2023-01-17T00:17:22.736Z,1.30
2023-01-17T00:20:08.598Z,1.43
2023-01-17T00:22:54.331Z,1.30
2023-01-17T00:25:42.540Z,1.70
2023-01-17T00:28:09.751Z,1.10
2023-01-17T00:30:37.055Z,1.00
2023-01-17T00:33:04.251Z,1.20
2023-01-17T00:35:31.918Z,1.43
2023-01-17T00:38:02.740Z,1.60
2023-01-17T00:40:31.429Z,1.30
2023-01-17T00:43:17.516Z,1.60
2023-01-17T00:46:03.575Z,1.13
2023-01-17T00:48:49.589Z,1.27
2023-01-17T00:51:35.630Z,1.00
2023-01-17T00:54:21.666Z,1.20
2023-01-17T00:57:09.084Z,1.03
2023-01-17T00:59:54.925Z,1.13
2023-01-17T01:02:40.677Z,2.03
2023-01-17T01:05:26.970Z,1.17
2023-01-17T01:08:12.999Z,1.10
2023-01-17T01:10:59.179Z,1.00
2023-01-17T01:13:47.229Z,1.00
2023-01-17T01:16:33.269Z,1.10
2023-01-17T01:19:19.096Z,0.80
2023-01-17T01:22:05.300Z,1.10
2023-01-17T01:24:51.308Z,1.10
2023-01-17T01:27:37.099Z,1.20
2023-01-17T01:30:25.144Z,1.00
2023-01-17T01:33:10.824Z,1.37
2023-01-17T01:35:39.205Z,0.93
2023-01-17T01:38:07.766Z,1.10
2023-01-17T01:40:36.136Z,1.30
2023-01-17T01:43:06.029Z,1.43
2023-01-17T01:45:36.205Z,1.00
2023-01-17T01:48:05.593Z,1.23
2023-01-17T01:50:34.116Z,1.20
2023-01-17T01:53:03.066Z,1.30
2023-01-17T01:55:31.981Z,1.50
2023-01-17T01:58:02.672Z,1.67
2023-01-17T02:00:31.974Z,1.90
2023-01-17T02:03:02.206Z,1.10
2023-01-17T02:05:30.593Z,1.37
2023-01-17T02:08:02.599Z,1.80
2023-01-17T02:10:32.867Z,1.60
2023-01-17T02:13:01.271Z,2.03
2023-01-17T02:15:31.169Z,1.50
2023-01-17T02:18:01.212Z,1.43
2023-01-17T02:20:49.619Z,1.57
2023-01-17T02:23:41.411Z,1.60
2023-01-17T02:26:19.476Z,1.40
2023-01-17T02:28:51.948Z,1.50
2023-01-17T02:31:22.525Z,1.40
2023-01-17T02:33:52.279Z,1.73
2023-01-17T02:36:21.570Z,2.40
2023-01-17T02:38:52.403Z,1.60
2023-01-17T02:41:21.446Z,1.10
2023-01-17T02:43:50.281Z,1.37
2023-01-17T02:46:18.821Z,1.27
2023-01-17T02:48:48.726Z,1.37
2023-01-17T02:51:27.190Z,1.13
2023-01-17T02:53:59.348Z,1.10
2023-01-17T02:56:32.527Z,1.00
2023-01-17T02:59:05.387Z,1.50
2023-01-17T03:01:35.481Z,1.27
2023-01-17T03:04:06.686Z,1.53
2023-01-17T03:06:36.622Z,1.63
2023-01-17T03:09:05.071Z,1.50
2023-01-17T03:11:34.770Z,1.30
2023-01-17T03:14:03.422Z,1.60
2023-01-17T03:16:33.412Z,1.30
2023-01-17T03:19:01.884Z,1.43
2023-01-17T03:21:31.629Z,1.17
2023-01-17T03:24:00.049Z,1.40
2023-01-17T03:26:28.404Z,1.37
2023-01-17T03:28:56.846Z,1.47
2023-01-17T03:31:25.274Z,1.60
2023-01-17T03:33:53.714Z,1.60
2023-01-17T03:36:22.206Z,1.97
2023-01-17T03:38:52.102Z,1.20
2023-01-17T03:41:20.510Z,1.67
2023-01-17T03:43:49.454Z,1.30
2023-01-17T03:46:21.503Z,1.30
2023-01-17T03:48:50.168Z,1.30
2023-01-17T03:51:18.788Z,1.60
2023-01-17T03:53:47.367Z,1.40
2023-01-17T03:56:17.327Z,1.40
2023-01-17T03:58:45.742Z,1.40
2023-01-17T04:01:14.687Z,1.30
2023-01-17T04:03:43.115Z,1.40
2023-01-17T04:06:11.637Z,1.37
2023-01-17T04:08:40.200Z,1.40
2023-01-17T04:11:08.707Z,1.70
2023-01-17T04:13:38.695Z,1.30
2023-01-17T04:16:07.555Z,1.50
2023-01-17T04:18:35.906Z,1.50
2023-01-17T04:21:04.510Z,1.60
2023-01-17T04:23:33.185Z,2.07
2023-01-17T04:26:03.636Z,1.20
2023-01-17T04:28:32.188Z,1.50
2023-01-17T04:31:02.021Z,1.90
2023-01-17T04:33:30.535Z,1.60
2023-01-17T04:35:59.025Z,1.60
2023-01-17T04:38:27.551Z,1.60
2023-01-17T04:40:56.079Z,1.30
2023-01-17T04:43:24.616Z,1.93
2023-01-17T04:45:56.519Z,1.77
2023-01-17T04:48:27.424Z,1.43
2023-01-17T04:51:00.693Z,1.30
2023-01-17T04:53:29.094Z,1.37
2023-01-17T04:55:57.451Z,3.10
2023-01-17T04:58:25.751Z,1.30
2023-01-17T05:00:54.952Z,1.40
2023-01-17T05:03:23.708Z,1.33
2023-01-17T05:05:53.385Z,1.33
2023-01-17T05:08:21.739Z,1.20
2023-01-17T05:10:50.086Z,1.70
2023-01-17T05:13:18.559Z,1.30
2023-01-17T05:15:46.997Z,1.50
2023-01-17T05:18:15.538Z,1.33
2023-01-17T05:20:44.149Z,1.47
2023-01-17T05:23:13.873Z,1.30
2023-01-17T05:25:46.926Z,1.47
2023-01-17T05:28:15.395Z,1.40
2023-01-17T05:30:43.833Z,1.40
2023-01-17T05:33:12.238Z,1.13
2023-01-17T05:35:40.611Z,1.60
2023-01-17T05:38:09.032Z,1.70
2023-01-17T05:40:38.823Z,1.63
2023-01-17T05:43:07.390Z,1.30
2023-01-17T05:45:35.773Z,1.40
2023-01-17T05:48:04.220Z,1.53
2023-01-17T05:50:33.139Z,1.47
2023-01-17T05:53:02.043Z,1.20
2023-01-17T05:55:30.448Z,1.23
2023-01-17T05:58:00.224Z,2.30
2023-01-17T06:00:28.997Z,1.60
2023-01-17T06:02:57.732Z,1.60
2023-01-17T06:05:26.208Z,1.33
2023-01-17T06:07:54.844Z,1.50
2023-01-17T06:10:23.310Z,1.60
2023-01-17T06:12:51.655Z,1.50
2023-01-17T06:15:21.443Z,1.60
2023-01-17T06:17:49.759Z,1.40
2023-01-17T06:20:18.315Z,1.37
2023-01-17T06:22:46.690Z,1.17
2023-01-17T06:25:15.361Z,1.43
2023-01-17T06:27:43.711Z,1.50
2023-01-17T06:30:12.788Z,1.50
2023-01-17T06:32:42.445Z,1.90
2023-01-17T06:35:11.183Z,1.93
2023-01-17T06:37:39.801Z,1.70
2023-01-17T06:40:09.064Z,1.70
2023-01-17T06:42:37.583Z,1.57
2023-01-17T06:45:06.292Z,1.60
2023-01-17T06:47:34.757Z,1.70
2023-01-17T06:50:04.430Z,1.60
2023-01-17T06:52:32.897Z,1.77
2023-01-17T06:55:01.332Z,1.50
2023-01-17T06:57:30.209Z,1.40
2023-01-17T06:59:58.582Z,1.73
2023-01-17T07:02:26.980Z,1.50
2023-01-17T07:04:55.399Z,1.40
2023-01-17T07:07:25.157Z,1.53
2023-01-17T07:09:53.596Z,1.47
2023-01-17T07:12:21.986Z,1.70
2023-01-17T07:14:50.383Z,1.60
2023-01-17T07:17:18.880Z,1.67
2023-01-17T07:19:47.250Z,1.67
2023-01-17T07:22:15.616Z,1.40
2023-01-17T07:24:45.409Z,1.37
2023-01-17T07:27:13.767Z,1.50
2023-01-17T07:29:42.105Z,1.63
2023-01-17T07:32:11.190Z,1.87
2023-01-17T07:34:40.542Z,1.50
2023-01-17T07:37:09.151Z,1.77
2023-01-17T07:39:37.568Z,1.60
2023-01-17T07:42:07.518Z,1.70
2023-01-17T07:44:35.893Z,2.30
2023-01-17T07:47:04.386Z,1.87
2023-01-17T07:49:32.733Z,2.10
2023-01-17T07:52:01.065Z,2.10
2023-01-17T07:54:29.525Z,2.07
2023-01-17T07:56:57.901Z,2.10
2023-01-17T07:59:27.617Z,2.43
2023-01-17T08:01:56.054Z,2.23
2023-01-17T08:04:27.306Z,2.80
2023-01-17T08:06:55.675Z,3.40
2023-01-17T08:09:24.246Z,3.00
2023-01-17T08:11:52.658Z,3.57
2023-01-17T08:14:20.990Z,4.27
2023-01-17T08:16:50.689Z,3.83
2023-01-17T08:19:19.037Z,3.27
2023-01-17T08:21:47.693Z,3.13
2023-01-17T08:24:16.230Z,2.33
2023-01-17T08:26:44.582Z,2.60
2023-01-17T08:29:13.154Z,2.40
2023-01-17T08:31:41.513Z,2.40
2023-01-17T08:34:11.369Z,2.40
2023-01-17T08:36:39.853Z,2.70
2023-01-17T08:39:08.243Z,2.93
2023-01-17T08:41:36.580Z,2.60
2023-01-17T08:44:04.919Z,3.17
2023-01-17T08:46:33.305Z,2.83
2023-01-17T08:49:02.912Z,3.37
2023-01-17T08:51:33.535Z,3.00
2023-01-17T08:54:01.833Z,2.67
2023-01-17T08:56:30.236Z,2.90
2023-01-17T08:58:58.635Z,2.33
2023-01-17T09:01:27.207Z,2.20
2023-01-17T09:03:55.982Z,2.40
2023-01-17T09:06:24.333Z,2.10
2023-01-17T09:08:54.842Z,3.40
2023-01-17T09:11:23.280Z,2.40
2023-01-17T09:13:51.685Z,4.63
2023-01-17T09:16:20.072Z,4.87
2023-01-17T09:18:48.535Z,4.80
2023-01-17T09:21:17.657Z,6.80
2023-01-17T09:23:46.083Z,5.37
2023-01-17T09:26:19.854Z,4.43
2023-01-17T09:28:49.452Z,3.53
2023-01-17T09:31:17.955Z,3.20
2023-01-17T09:33:46.285Z,2.97
2023-01-17T09:36:14.633Z,3.10
2023-01-17T09:38:43.089Z,2.53
2023-01-17T09:41:27.783Z,3.20
2023-01-17T09:43:57.675Z,3.07
2023-01-17T09:46:27.319Z,2.83
2023-01-17T09:48:58.262Z,3.00
2023-01-17T09:51:26.725Z,3.47
2023-01-17T09:53:55.269Z,2.93
2023-01-17T09:56:24.719Z,3.03
2023-01-17T09:58:54.809Z,3.20
2023-01-17T10:01:24.620Z,2.50
2023-01-17T10:03:57.812Z,2.80
2023-01-17T10:06:47.110Z,3.30
2023-01-17T10:09:19.847Z,3.47
2023-01-17T10:11:51.114Z,3.40
2023-01-17T10:14:27.581Z,3.30
2023-01-17T10:16:57.083Z,3.20
2023-01-17T10:19:32.596Z,3.73
2023-01-17T10:22:04.290Z,3.23
2023-01-17T10:24:51.919Z,3.27
2023-01-17T10:27:21.428Z,2.40
2023-01-17T10:29:51.320Z,2.30
2023-01-17T10:32:20.125Z,2.23
2023-01-17T10:34:49.499Z,2.10
2023-01-17T10:37:18.907Z,1.80
2023-01-17T10:39:48.004Z,1.73
2023-01-17T10:42:18.907Z,1.97
2023-01-17T10:44:48.581Z,2.50
2023-01-17T10:47:20.333Z,2.40
2023-01-17T10:49:48.977Z,2.37
2023-01-17T10:52:18.188Z,2.47
2023-01-17T10:54:58.748Z,2.37
2023-01-17T10:57:27.625Z,2.17
2023-01-17T10:59:57.454Z,2.20
2023-01-17T11:02:27.912Z,1.90
2023-01-17T11:04:57.065Z,2.50
2023-01-17T11:07:25.783Z,2.60
2023-01-17T11:09:54.581Z,2.10
2023-01-17T11:12:24.925Z,2.37
2023-01-17T11:14:58.723Z,2.70
2023-01-17T11:17:28.653Z,3.10
2023-01-17T11:20:07.637Z,2.30
2023-01-17T11:22:35.998Z,2.10
2023-01-17T11:25:04.363Z,1.67
2023-01-17T11:27:33.108Z,1.10
2023-01-17T11:30:05.468Z,1.00
2023-01-17T11:32:35.486Z,1.00
2023-01-17T11:35:08.051Z,1.07
2023-01-17T11:37:36.555Z,1.30
2023-01-17T11:40:18.090Z,1.20
2023-01-17T11:42:46.751Z,1.27
2023-01-17T11:45:27.532Z,1.00
2023-01-17T11:48:12.822Z,1.30
2023-01-17T11:50:41.520Z,2.27
2023-01-17T11:53:15.516Z,1.00
2023-01-17T11:55:53.652Z,1.00
2023-01-17T11:58:22.098Z,1.27
2023-01-17T12:00:50.819Z,1.10
2023-01-17T12:03:23.227Z,1.50
2023-01-17T12:05:54.474Z,1.20
2023-01-17T12:08:26.712Z,1.23
2023-01-17T12:10:56.213Z,1.13
2023-01-17T12:13:44.941Z,1.17
2023-01-17T12:16:31.777Z,1.00
2023-01-17T12:19:05.372Z,1.17
2023-01-17T12:21:36.634Z,1.00
2023-01-17T12:24:23.770Z,1.10
2023-01-17T12:26:52.557Z,0.93
2023-01-17T12:29:33.680Z,1.10
2023-01-17T12:32:05.883Z,1.00
2023-01-17T12:34:36.423Z,1.10
2023-01-17T12:37:05.213Z,1.00
2023-01-17T12:39:35.328Z,1.37
2023-01-17T12:42:04.522Z,1.20
2023-01-17T12:44:39.600Z,1.10
2023-01-17T12:47:08.343Z,1.07
2023-01-17T12:49:41.510Z,1.23
2023-01-17T12:52:12.769Z,1.20
2023-01-17T12:54:41.528Z,1.00
2023-01-17T12:57:13.966Z,1.00
2023-01-17T12:59:43.225Z,1.03
2023-01-17T13:02:14.787Z,0.90
2023-01-17T13:04:58.083Z,0.90
2023-01-17T13:07:28.771Z,1.10
2023-01-17T13:09:57.644Z,0.90
2023-01-17T13:12:26.043Z,1.00
2023-01-17T13:14:54.525Z,1.07
2023-01-17T13:17:28.242Z,0.90
2023-01-17T13:19:59.416Z,1.07
2023-01-17T13:22:27.905Z,1.10
2023-01-17T13:24:57.857Z,1.00
2023-01-17T13:27:32.406Z,0.90
2023-01-17T13:30:15.806Z,0.87
2023-01-17T13:32:50.723Z,1.10
2023-01-17T13:35:24.733Z,0.90
2023-01-17T13:37:57.325Z,1.53
2023-01-17T13:40:37.094Z,1.00
2023-01-17T13:43:05.708Z,1.57
2023-01-17T13:45:34.575Z,1.07
2023-01-17T13:48:26.892Z,1.10
2023-01-17T13:50:56.722Z,1.30
2023-01-17T13:53:56.359Z,1.10
2023-01-17T13:56:28.992Z,0.90
2023-01-17T13:58:58.749Z,1.00
2023-01-17T14:01:43.093Z,1.03
2023-01-17T14:04:11.892Z,1.20
2023-01-17T14:06:41.941Z,1.00
2023-01-17T14:09:15.045Z,0.80
2023-01-17T14:11:59.723Z,1.00
2023-01-17T14:14:48.484Z,1.20
2023-01-17T14:17:50.090Z,1.70
2023-01-17T14:20:42.217Z,1.30
2023-01-17T14:23:29.295Z,1.20
2023-01-17T14:25:59.195Z,1.00
2023-01-17T14:28:30.872Z,1.10
2023-01-17T14:31:00.242Z,1.20
2023-01-17T14:33:38.824Z,0.93
2023-01-17T14:36:07.709Z,1.10
2023-01-17T14:38:36.262Z,1.13
2023-01-17T14:41:07.549Z,1.10
2023-01-17T14:43:36.173Z,1.00
2023-01-17T14:46:05.044Z,0.90
2023-01-17T14:48:33.439Z,1.20
2023-01-17T14:51:01.912Z,1.20
2023-01-17T14:53:30.638Z,1.10
2023-01-17T14:56:01.998Z,1.20
2023-01-17T14:58:32.397Z,1.10
2023-01-17T15:01:01.779Z,0.87
2023-01-17T15:03:30.658Z,1.00
2023-01-17T15:05:59.323Z,1.40
2023-01-17T15:08:32.976Z,1.00
2023-01-17T15:11:05.288Z,1.00
2023-01-17T15:13:44.423Z,1.00
2023-01-17T15:16:19.000Z,1.10
2023-01-17T15:18:48.434Z,0.90
2023-01-17T15:21:17.297Z,1.17
2023-01-17T15:23:46.307Z,1.13
2023-01-17T15:26:15.170Z,0.97
2023-01-17T15:28:45.876Z,1.20
2023-01-17T15:31:14.859Z,1.10
2023-01-17T15:33:44.086Z,1.10
2023-01-17T15:36:14.087Z,1.10
2023-01-17T15:38:42.451Z,1.10
2023-01-17T15:41:11.906Z,1.10
2023-01-17T15:43:40.197Z,1.10
2023-01-17T15:46:18.699Z,1.07
2023-01-17T15:48:47.327Z,1.30
2023-01-17T15:51:16.329Z,1.03
2023-01-17T15:53:44.809Z,1.20
2023-01-17T15:56:23.274Z,1.30
2023-01-17T15:58:51.938Z,1.30
2023-01-17T16:01:26.563Z,2.03
2023-01-17T16:03:55.544Z,2.03
2023-01-17T16:06:30.523Z,1.90
2023-01-17T16:08:58.839Z,2.60
2023-01-17T16:11:27.834Z,2.10
2023-01-17T16:13:56.827Z,1.90
2023-01-17T16:16:26.918Z,3.23
2023-01-17T16:19:00.191Z,3.10
2023-01-17T16:21:28.955Z,2.77
2023-01-17T16:23:58.020Z,2.50
2023-01-17T16:26:27.658Z,2.27
2023-01-17T16:28:56.263Z,2.27
2023-01-17T16:31:27.460Z,3.13
2023-01-17T16:33:56.296Z,3.10
2023-01-17T16:36:24.684Z,2.90
2023-01-17T16:38:53.832Z,2.63
2023-01-17T16:41:22.451Z,3.10
2023-01-17T16:44:00.645Z,3.00
2023-01-17T16:46:30.669Z,2.93
2023-01-17T16:49:00.782Z,2.90
2023-01-17T16:51:29.095Z,3.57
2023-01-17T16:53:58.239Z,3.23
2023-01-17T16:56:26.596Z,3.50
2023-01-17T16:58:55.131Z,3.17
2023-01-17T17:01:25.213Z,3.33
2023-01-17T17:03:55.022Z,3.93
2023-01-17T17:06:23.409Z,3.83
2023-01-17T17:08:52.041Z,3.60
2023-01-17T17:11:20.788Z,3.90
2023-01-17T17:13:49.612Z,3.93
2023-01-17T17:16:18.854Z,4.10
2023-01-17T17:18:47.589Z,4.47
2023-01-17T17:21:17.358Z,4.80
2023-01-17T17:23:46.523Z,4.90
2023-01-17T17:26:14.858Z,5.10
2023-01-17T17:28:43.221Z,4.63
2023-01-17T17:31:12.041Z,5.53
2023-01-17T17:33:40.567Z,6.10
2023-01-17T17:36:10.914Z,5.73
2023-01-17T17:38:50.708Z,6.63
2023-01-17T17:41:21.078Z,6.10
2023-01-17T17:43:49.592Z,6.10
2023-01-17T17:46:18.062Z,6.40
2023-01-17T17:48:46.560Z,6.03
2023-01-17T17:51:24.687Z,5.67
2023-01-17T17:53:54.764Z,5.80
2023-01-17T17:56:23.256Z,5.70
2023-01-17T17:58:51.782Z,5.93
2023-01-17T18:01:22.521Z,5.53
2023-01-17T18:03:51.116Z,5.63
2023-01-17T18:06:19.471Z,5.53
2023-01-17T18:08:47.878Z,5.97
2023-01-17T18:11:18.824Z,5.40
2023-01-17T18:13:50.421Z,5.30
2023-01-17T18:16:19.322Z,5.07
2023-01-17T18:18:48.985Z,4.60
2023-01-17T18:21:23.539Z,5.03
2023-01-17T18:23:52.309Z,5.03
2023-01-17T18:26:22.368Z,5.63
2023-01-17T18:28:50.927Z,6.30
2023-01-17T18:31:19.390Z,5.20
2023-01-17T18:33:47.959Z,5.27
2023-01-17T18:36:16.447Z,5.00
2023-01-17T18:38:46.379Z,5.17
2023-01-17T18:41:15.311Z,4.87
2023-01-17T18:43:45.008Z,4.60
2023-01-17T18:46:22.901Z,3.70
2023-01-17T18:48:51.284Z,3.83
2023-01-17T18:51:20.405Z,4.30
2023-01-17T18:53:48.791Z,4.38
2023-01-17T18:56:21.122Z,4.10
2023-01-17T18:58:51.171Z,4.37
2023-01-17T19:01:20.218Z,4.17
2023-01-17T19:03:49.087Z,3.80
2023-01-17T19:06:18.948Z,3.63
2023-01-17T19:08:48.559Z,3.90
2023-01-17T19:11:17.347Z,3.80
2023-01-17T19:13:45.805Z,3.60
2023-01-17T19:16:16.669Z,4.90
2023-01-17T19:18:45.042Z,3.70
2023-01-17T19:21:13.994Z,3.73
2023-01-17T19:23:43.423Z,3.80
2023-01-17T19:26:12.644Z,3.87
2023-01-17T19:28:41.126Z,4.77
2023-01-17T19:31:10.963Z,3.80
2023-01-17T19:33:41.098Z,3.83
2023-01-17T19:36:10.469Z,4.20
2023-01-17T19:38:38.999Z,4.30
2023-01-17T19:41:10.753Z,3.63
2023-01-17T19:43:39.467Z,3.80
2023-01-17T19:46:09.236Z,4.37
2023-01-17T19:48:37.870Z,3.93
2023-01-17T19:51:09.331Z,3.87
2023-01-17T19:53:37.668Z,3.80
2023-01-17T19:56:07.124Z,4.13
2023-01-17T19:58:36.030Z,4.00
2023-01-17T20:01:08.447Z,3.83
2023-01-17T20:03:37.263Z,3.77
2023-01-17T20:06:05.934Z,3.90
2023-01-17T20:08:35.904Z,4.03
2023-01-17T20:11:04.966Z,4.30
2023-01-17T20:13:33.677Z,4.10
2023-01-17T20:16:04.838Z,4.23
2023-01-17T20:18:33.582Z,4.03
2023-01-17T20:21:06.132Z,4.67
2023-01-17T20:23:38.481Z,4.23
2023-01-17T20:26:07.494Z,4.27
2023-01-17T20:28:36.404Z,4.00
2023-01-17T20:31:08.971Z,4.77
2023-01-17T20:33:37.482Z,4.80
2023-01-17T20:36:10.715Z,5.10
2023-01-17T20:38:46.890Z,4.33
2023-01-17T20:41:15.780Z,4.90
2023-01-17T20:43:44.239Z,5.13
2023-01-17T20:46:15.656Z,4.73
2023-01-17T20:48:47.347Z,4.77
2023-01-17T20:51:15.722Z,4.70
2023-01-17T20:53:45.839Z,5.20
2023-01-17T20:56:15.065Z,4.63
2023-01-17T20:58:44.111Z,4.83
2023-01-17T21:01:13.086Z,4.10
2023-01-17T21:03:41.749Z,4.87
2023-01-17T21:06:10.730Z,4.67
2023-01-17T21:08:39.693Z,4.50
2023-01-17T21:11:09.966Z,5.00
2023-01-17T21:13:38.362Z,4.63
2023-01-17T21:16:07.053Z,4.70
2023-01-17T21:18:35.425Z,4.60
2023-01-17T21:21:05.147Z,4.60
2023-01-17T21:23:33.660Z,4.60
2023-01-17T21:26:01.974Z,4.47
2023-01-17T21:28:31.949Z,4.70
2023-01-17T21:31:00.647Z,4.77
2023-01-17T21:33:29.795Z,4.77
2023-01-17T21:35:59.823Z,4.77
2023-01-17T21:38:29.896Z,4.80
2023-01-17T21:40:58.382Z,5.27
2023-01-17T21:43:27.098Z,5.00
2023-01-17T21:45:57.080Z,4.67
2023-01-17T21:48:26.087Z,5.40
2023-01-17T21:50:54.527Z,5.23
2023-01-17T21:53:22.992Z,5.10
2023-01-17T21:56:08.819Z,5.70
2023-01-17T21:58:46.056Z,5.90
2023-01-17T22:01:18.987Z,7.23
2023-01-17T22:03:49.778Z,7.67
2023-01-17T22:06:18.282Z,7.80
2023-01-17T22:08:46.797Z,6.90
2023-01-17T22:11:15.593Z,7.43
2023-01-17T22:13:44.687Z,6.97
2023-01-17T22:16:13.832Z,7.40
2023-01-17T22:18:43.839Z,7.07
2023-01-17T22:21:12.911Z,6.70
2023-01-17T22:23:41.424Z,6.63
2023-01-17T22:26:10.170Z,7.03
2023-01-17T22:28:38.597Z,6.47
2023-01-17T22:31:11.475Z,6.80
2023-01-17T22:33:40.162Z,7.00
2023-01-17T22:36:10.631Z,6.67
2023-01-17T22:38:39.070Z,7.07
2023-01-17T22:41:08.781Z,6.40
2023-01-17T22:43:38.352Z,6.77
2023-01-17T22:46:07.141Z,6.53
2023-01-17T22:48:35.664Z,5.70
2023-01-17T22:51:04.201Z,6.47
2023-01-17T22:53:33.946Z,6.27
2023-01-17T22:56:02.907Z,7.03
2023-01-17T22:58:31.349Z,7.40
2023-01-17T23:01:05.449Z,7.67
2023-01-17T23:03:34.019Z,6.53
2023-01-17T23:06:11.989Z,6.27
2023-01-17T23:08:42.279Z,7.33
2023-01-17T23:11:33.673Z,6.43
2023-01-17T23:14:02.243Z,6.50
2023-01-17T23:16:48.315Z,5.70
2023-01-17T23:19:33.944Z,5.83
2023-01-17T23:22:19.120Z,5.63
2023-01-17T23:24:49.931Z,5.73
2023-01-17T23:27:36.342Z,5.37
2023-01-17T23:30:04.809Z,4.90
2023-01-17T23:32:33.219Z,5.60
2023-01-17T23:35:01.739Z,5.57
2023-01-17T23:37:44.405Z,5.70
2023-01-17T23:40:14.565Z,5.27
2023-01-17T23:43:00.759Z,5.23
2023-01-17T23:45:29.317Z,4.93
2023-01-17T23:47:57.697Z,5.17
2023-01-17T23:50:26.059Z,4.90
2023-01-17T23:52:54.543Z,5.40
2023-01-17T23:55:24.336Z,5.50
2023-01-17T23:57:52.902Z,5.10
